sensor_id;sensor_type;location;lat;lon;timestamp;pressure;altitude;pressure_sealevel;temperature;humidity
35910;BME280;22004;49.120;-0.200;2022-09-09T00:02:27;100559.81;;;16.44;100.00
35910;BME280;22004;49.120;-0.200;2022-09-09T00:05:14;100564.91;;;16.47;100.00
35910;BME280;22004;49.120;-0.200;2022-09-09T00:07:47;100559.94;;;16.65;100.00
35910;BME280;22004;49.120;-0.200;2022-09-09T00:10:16;100556.50;;;16.41;100.00
35910;BME280;22004;49.120;-0.200;2022-09-09T00:15:23;100554.06;;;16.38;100.00
35910;BME280;22004;49.120;-0.200;2022-09-09T00:17:58;100559.75;;;16.33;100.00
35910;BME280;22004;49.120;-0.200;2022-09-09T00:23:17;100565.28;;;16.43;100.00
35910;BME280;22004;49.120;-0.200;2022-09-09T00:28:31;100570.09;;;16.26;100.00
35910;BME280;22004;49.120;-0.200;2022-09-09T00:31:13;100573.59;;;16.15;100.00
35910;BME280;22004;49.120;-0.200;2022-09-09T00:33:41;100554.53;;;16.20;100.00
35910;BME280;22004;49.120;-0.200;2022-09-09T00:36:14;100554.78;;;16.40;100.00
35910;BME280;22004;49.120;-0.200;2022-09-09T00:38:52;100553.84;;;16.52;100.00
35910;BME280;22004;49.120;-0.200;2022-09-09T00:50:03;100550.19;;;16.30;100.00
35910;BME280;22004;49.120;-0.200;2022-09-09T00:55:25;100555.16;;;16.24;100.00
35910;BME280;22004;49.120;-0.200;2022-09-09T00:57:53;100555.38;;;16.21;100.00
35910;BME280;22004;49.120;-0.200;2022-09-09T01:00:22;100570.25;;;16.36;100.00
35910;BME280;22004;49.120;-0.200;2022-09-09T01:05:44;100563.75;;;16.16;100.00
35910;BME280;22004;49.120;-0.200;2022-09-09T01:11:00;100555.66;;;16.40;100.00
35910;BME280;22004;49.120;-0.200;2022-09-09T01:13:33;100547.38;;;16.43;100.00
35910;BME280;22004;49.120;-0.200;2022-09-09T01:16:02;100549.06;;;16.33;100.00
35910;BME280;22004;49.120;-0.200;2022-09-09T01:18:49;100543.28;;;16.62;100.00
35910;BME280;22004;49.120;-0.200;2022-09-09T01:21:42;100552.03;;;16.41;100.00
35910;BME280;22004;49.120;-0.200;2022-09-09T01:24:15;100547.38;;;16.55;100.00
35910;BME280;22004;49.120;-0.200;2022-09-09T01:26:48;100552.88;;;16.42;100.00
35910;BME280;22004;49.120;-0.200;2022-09-09T01:29:17;100552.75;;;16.55;100.00
35910;BME280;22004;49.120;-0.200;2022-09-09T01:31:58;100549.94;;;16.33;100.00
35910;BME280;22004;49.120;-0.200;2022-09-09T01:34:27;100553.69;;;16.42;100.00
35910;BME280;22004;49.120;-0.200;2022-09-09T01:37:07;100547.25;;;16.33;100.00
35910;BME280;22004;49.120;-0.200;2022-09-09T01:39:36;100553.19;;;16.37;100.00
35910;BME280;22004;49.120;-0.200;2022-09-09T01:42:03;100560.50;;;16.24;100.00
35910;BME280;22004;49.120;-0.200;2022-09-09T01:44:30;100556.38;;;16.20;100.00
35910;BME280;22004;49.120;-0.200;2022-09-09T01:46:56;100548.97;;;16.46;100.00
35910;BME280;22004;49.120;-0.200;2022-09-09T01:49:21;100552.16;;;16.51;100.00
35910;BME280;22004;49.120;-0.200;2022-09-09T01:51:51;100555.88;;;16.37;100.00
35910;BME280;22004;49.120;-0.200;2022-09-09T01:54:19;100546.03;;;16.38;100.00
35910;BME280;22004;49.120;-0.200;2022-09-09T02:04:43;100544.25;;;16.61;100.00
35910;BME280;22004;49.120;-0.200;2022-09-09T02:07:40;100544.13;;;16.51;100.00
35910;BME280;22004;49.120;-0.200;2022-09-09T02:10:20;100541.91;;;16.45;100.00
35910;BME280;22004;49.120;-0.200;2022-09-09T02:12:51;100543.13;;;16.29;100.00
35910;BME280;22004;49.120;-0.200;2022-09-09T02:15:26;100541.91;;;16.45;100.00
35910;BME280;22004;49.120;-0.200;2022-09-09T02:17:55;100544.84;;;16.42;100.00
35910;BME280;22004;49.120;-0.200;2022-09-09T02:20:23;100546.28;;;16.57;100.00
35910;BME280;22004;49.120;-0.200;2022-09-09T02:22:52;100544.84;;;16.42;100.00
35910;BME280;22004;49.120;-0.200;2022-09-09T02:25:21;100535.38;;;16.60;100.00
35910;BME280;22004;49.120;-0.200;2022-09-09T02:27:49;100525.88;;;16.56;100.00
35910;BME280;22004;49.120;-0.200;2022-09-09T02:30:15;100537.53;;;16.66;100.00
35910;BME280;22004;49.120;-0.200;2022-09-09T02:32:42;100549.22;;;16.65;100.00
35910;BME280;22004;49.120;-0.200;2022-09-09T02:35:19;100542.28;;;16.52;100.00
35910;BME280;22004;49.120;-0.200;2022-09-09T02:37:45;100545.78;;;16.29;100.00
35910;BME280;22004;49.120;-0.200;2022-09-09T02:40:12;100541.19;;;16.65;100.00
35910;BME280;22004;49.120;-0.200;2022-09-09T02:42:44;100538.41;;;16.67;100.00
35910;BME280;22004;49.120;-0.200;2022-09-09T02:45:12;100540.78;;;16.25;100.00
35910;BME280;22004;49.120;-0.200;2022-09-09T02:47:44;100547.97;;;16.24;100.00
35910;BME280;22004;49.120;-0.200;2022-09-09T02:53:07;100557.22;;;16.31;100.00
35910;BME280;22004;49.120;-0.200;2022-09-09T02:55:41;100560.25;;;16.27;100.00
35910;BME280;22004;49.120;-0.200;2022-09-09T02:58:13;100556.50;;;16.29;100.00
35910;BME280;22004;49.120;-0.200;2022-09-09T03:00:43;100565.22;;;16.20;100.00
35910;BME280;22004;49.120;-0.200;2022-09-09T03:03:10;100562.56;;;16.20;100.00
35910;BME280;22004;49.120;-0.200;2022-09-09T03:05:36;100569.16;;;16.39;100.00
35910;BME280;22004;49.120;-0.200;2022-09-09T03:08:03;100568.59;;;16.11;100.00
35910;BME280;22004;49.120;-0.200;2022-09-09T03:10:29;100567.84;;;16.44;100.00
35910;BME280;22004;49.120;-0.200;2022-09-09T03:12:54;100573.13;;;16.10;100.00
35910;BME280;22004;49.120;-0.200;2022-09-09T03:15:20;100572.03;;;16.13;100.00
35910;BME280;22004;49.120;-0.200;2022-09-09T03:17:46;100562.69;;;16.30;100.00
35910;BME280;22004;49.120;-0.200;2022-09-09T03:20:12;100560.13;;;16.17;100.00
35910;BME280;22004;49.120;-0.200;2022-09-09T03:22:37;100566.97;;;16.44;100.00
35910;BME280;22004;49.120;-0.200;2022-09-09T03:25:03;100571.75;;;16.05;100.00
35910;BME280;22004;49.120;-0.200;2022-09-09T03:27:29;100561.47;;;16.34;100.00
35910;BME280;22004;49.120;-0.200;2022-09-09T03:29:54;100564.78;;;16.49;100.00
35910;BME280;22004;49.120;-0.200;2022-09-09T03:32:20;100555.03;;;16.25;100.00
35910;BME280;22004;49.120;-0.200;2022-09-09T03:34:48;100567.66;;;16.23;100.00
35910;BME280;22004;49.120;-0.200;2022-09-09T03:37:16;100561.66;;;16.08;100.00
35910;BME280;22004;49.120;-0.200;2022-09-09T03:39:42;100561.53;;;16.10;100.00
35910;BME280;22004;49.120;-0.200;2022-09-09T03:42:08;100563.19;;;16.24;100.00
35910;BME280;22004;49.120;-0.200;2022-09-09T03:44:33;100565.50;;;16.40;100.00
35910;BME280;22004;49.120;-0.200;2022-09-09T03:46:58;100565.56;;;15.56;100.00
35910;BME280;22004;49.120;-0.200;2022-09-09T03:49:26;100569.78;;;15.95;100.00
35910;BME280;22004;49.120;-0.200;2022-09-09T03:51:51;100580.41;;;16.08;100.00
35910;BME280;22004;49.120;-0.200;2022-09-09T03:54:16;100588.34;;;16.21;100.00
35910;BME280;22004;49.120;-0.200;2022-09-09T03:56:42;100592.44;;;16.49;100.00
35910;BME280;22004;49.120;-0.200;2022-09-09T03:59:07;100571.22;;;16.46;100.00
35910;BME280;22004;49.120;-0.200;2022-09-09T04:01:34;100585.78;;;16.78;100.00
35910;BME280;22004;49.120;-0.200;2022-09-09T04:03:59;100594.56;;;17.03;100.00
35910;BME280;22004;49.120;-0.200;2022-09-09T04:06:27;100588.81;;;16.84;100.00
35910;BME280;22004;49.120;-0.200;2022-09-09T04:08:53;100584.69;;;17.03;100.00
35910;BME280;22004;49.120;-0.200;2022-09-09T04:11:19;100584.69;;;17.03;100.00
35910;BME280;22004;49.120;-0.200;2022-09-09T04:13:45;100590.59;;;16.50;100.00
35910;BME280;22004;49.120;-0.200;2022-09-09T04:16:11;100593.34;;;16.37;100.00
35910;BME280;22004;49.120;-0.200;2022-09-09T04:18:38;100576.72;;;16.45;100.00
35910;BME280;22004;49.120;-0.200;2022-09-09T04:21:04;100576.94;;;16.30;100.00
35910;BME280;22004;49.120;-0.200;2022-09-09T04:23:31;100577.41;;;16.36;100.00
35910;BME280;22004;49.120;-0.200;2022-09-09T04:25:57;100581.63;;;16.74;100.00
35910;BME280;22004;49.120;-0.200;2022-09-09T04:28:25;100585.38;;;16.48;100.00
35910;BME280;22004;49.120;-0.200;2022-09-09T04:30:51;100580.38;;;16.55;100.00
35910;BME280;22004;49.120;-0.200;2022-09-09T04:33:18;100579.22;;;15.88;100.00
35910;BME280;22004;49.120;-0.200;2022-09-09T04:35:49;100586.72;;;16.54;100.00
35910;BME280;22004;49.120;-0.200;2022-09-09T04:38:16;100582.19;;;16.55;100.00
35910;BME280;22004;49.120;-0.200;2022-09-09T04:40:49;100592.06;;;16.43;100.00
35910;BME280;22004;49.120;-0.200;2022-09-09T04:43:15;100589.03;;;16.70;100.00
35910;BME280;22004;49.120;-0.200;2022-09-09T04:45:41;100593.00;;;16.30;100.00
35910;BME280;22004;49.120;-0.200;2022-09-09T04:48:07;100589.50;;;16.41;100.00
35910;BME280;22004;49.120;-0.200;2022-09-09T04:50:33;100586.69;;;15.96;100.00
35910;BME280;22004;49.120;-0.200;2022-09-09T04:53:05;100598.88;;;16.11;100.00
35910;BME280;22004;49.120;-0.200;2022-09-09T04:55:31;100591.34;;;16.05;100.00
35910;BME280;22004;49.120;-0.200;2022-09-09T04:57:57;100583.00;;;16.32;100.00
35910;BME280;22004;49.120;-0.200;2022-09-09T05:00:25;100588.81;;;16.15;100.00
35910;BME280;22004;49.120;-0.200;2022-09-09T05:02:50;100593.91;;;16.18;100.00
35910;BME280;22004;49.120;-0.200;2022-09-09T05:05:16;100590.16;;;15.85;100.00
35910;BME280;22004;49.120;-0.200;2022-09-09T05:07:42;100592.59;;;15.88;100.00
35910;BME280;22004;49.120;-0.200;2022-09-09T05:10:08;100594.06;;;15.92;100.00
35910;BME280;22004;49.120;-0.200;2022-09-09T05:12:35;100595.69;;;16.42;100.00
35910;BME280;22004;49.120;-0.200;2022-09-09T05:15:00;100592.69;;;16.11;100.00
35910;BME280;22004;49.120;-0.200;2022-09-09T05:17:25;100599.06;;;16.32;100.00
35910;BME280;22004;49.120;-0.200;2022-09-09T05:19:51;100599.63;;;16.13;100.00
35910;BME280;22004;49.120;-0.200;2022-09-09T05:22:19;100595.09;;;16.03;100.00
35910;BME280;22004;49.120;-0.200;2022-09-09T05:24:45;100602.81;;;16.19;100.00
35910;BME280;22004;49.120;-0.200;2022-09-09T05:27:11;100599.28;;;16.18;100.00
35910;BME280;22004;49.120;-0.200;2022-09-09T05:29:37;100604.81;;;16.28;100.00
35910;BME280;22004;49.120;-0.200;2022-09-09T05:32:03;100606.44;;;16.06;100.00
35910;BME280;22004;49.120;-0.200;2022-09-09T05:34:29;100604.47;;;16.08;100.00
35910;BME280;22004;49.120;-0.200;2022-09-09T05:36:54;100604.63;;;15.82;100.00
35910;BME280;22004;49.120;-0.200;2022-09-09T05:39:20;100607.41;;;16.16;100.00
35910;BME280;22004;49.120;-0.200;2022-09-09T05:41:45;100606.66;;;16.39;100.00
35910;BME280;22004;49.120;-0.200;2022-09-09T05:44:10;100607.84;;;16.35;100.00
35910;BME280;22004;49.120;-0.200;2022-09-09T05:46:36;100610.88;;;15.94;100.00
35910;BME280;22004;49.120;-0.200;2022-09-09T05:49:02;100611.25;;;16.37;100.00
35910;BME280;22004;49.120;-0.200;2022-09-09T05:51:28;100604.78;;;15.92;100.00
35910;BME280;22004;49.120;-0.200;2022-09-09T05:53:55;100611.50;;;15.74;100.00
35910;BME280;22004;49.120;-0.200;2022-09-09T05:56:26;100613.06;;;16.00;100.00
35910;BME280;22004;49.120;-0.200;2022-09-09T05:58:52;100617.75;;;16.10;100.00
35910;BME280;22004;49.120;-0.200;2022-09-09T06:01:21;100622.22;;;16.45;100.00
35910;BME280;22004;49.120;-0.200;2022-09-09T06:03:48;100628.00;;;16.16;100.00
35910;BME280;22004;49.120;-0.200;2022-09-09T06:06:16;100625.25;;;16.05;100.00
35910;BME280;22004;49.120;-0.200;2022-09-09T06:08:43;100615.53;;;16.39;100.00
35910;BME280;22004;49.120;-0.200;2022-09-09T06:11:12;100622.72;;;16.39;100.00
35910;BME280;22004;49.120;-0.200;2022-09-09T06:13:38;100616.16;;;16.54;100.00
35910;BME280;22004;49.120;-0.200;2022-09-09T06:16:06;100625.44;;;16.14;100.00
35910;BME280;22004;49.120;-0.200;2022-09-09T06:18:33;100622.84;;;16.48;100.00
35910;BME280;22004;49.120;-0.200;2022-09-09T06:21:00;100621.84;;;16.38;100.00
35910;BME280;22004;49.120;-0.200;2022-09-09T06:23:27;100635.59;;;16.33;100.00
35910;BME280;22004;49.120;-0.200;2022-09-09T06:26:13;100636.81;;;16.41;100.00
35910;BME280;22004;49.120;-0.200;2022-09-09T06:28:39;100638.41;;;16.43;100.00
35910;BME280;22004;49.120;-0.200;2022-09-09T06:31:10;100636.66;;;16.20;100.00
35910;BME280;22004;49.120;-0.200;2022-09-09T06:33:39;100643.91;;;16.53;100.00
35910;BME280;22004;49.120;-0.200;2022-09-09T06:36:10;100639.94;;;16.81;100.00
35910;BME280;22004;49.120;-0.200;2022-09-09T06:38:36;100635.34;;;16.37;100.00
35910;BME280;22004;49.120;-0.200;2022-09-09T06:41:01;100643.88;;;16.42;100.00
35910;BME280;22004;49.120;-0.200;2022-09-09T06:43:27;100649.75;;;16.47;100.00
35910;BME280;22004;49.120;-0.200;2022-09-09T06:48:26;100655.03;;;16.71;100.00
35910;BME280;22004;49.120;-0.200;2022-09-09T06:51:03;100652.81;;;16.65;100.00
35910;BME280;22004;49.120;-0.200;2022-09-09T06:53:28;100652.06;;;16.16;100.00
35910;BME280;22004;49.120;-0.200;2022-09-09T06:55:54;100657.47;;;16.86;100.00
35910;BME280;22004;49.120;-0.200;2022-09-09T06:58:20;100665.44;;;16.98;100.00
35910;BME280;22004;49.120;-0.200;2022-09-09T07:00:47;100660.66;;;16.79;100.00
35910;BME280;22004;49.120;-0.200;2022-09-09T07:03:13;100658.47;;;16.84;100.00
35910;BME280;22004;49.120;-0.200;2022-09-09T07:05:38;100668.88;;;17.12;100.00
35910;BME280;22004;49.120;-0.200;2022-09-09T07:08:03;100659.94;;;16.89;100.00
35910;BME280;22004;49.120;-0.200;2022-09-09T07:10:29;100660.44;;;16.94;100.00
35910;BME280;22004;49.120;-0.200;2022-09-09T07:12:54;100669.72;;;17.01;100.00
35910;BME280;22004;49.120;-0.200;2022-09-09T07:15:20;100672.78;;;17.08;100.00
35910;BME280;22004;49.120;-0.200;2022-09-09T07:17:46;100666.50;;;17.75;100.00
35910;BME280;22004;49.120;-0.200;2022-09-09T07:20:13;100669.31;;;18.17;100.00
35910;BME280;22004;49.120;-0.200;2022-09-09T07:22:40;100669.13;;;19.15;99.15
35910;BME280;22004;49.120;-0.200;2022-09-09T07:25:05;100670.56;;;18.88;99.73
35910;BME280;22004;49.120;-0.200;2022-09-09T07:27:31;100667.25;;;19.37;97.06
35910;BME280;22004;49.120;-0.200;2022-09-09T07:29:56;100672.25;;;18.89;99.50
35910;BME280;22004;49.120;-0.200;2022-09-09T07:32:22;100675.56;;;19.74;93.97
35910;BME280;22004;49.120;-0.200;2022-09-09T07:34:48;100673.84;;;19.63;93.06
35910;BME280;22004;49.120;-0.200;2022-09-09T07:37:13;100674.91;;;19.10;98.51
35910;BME280;22004;49.120;-0.200;2022-09-09T07:39:39;100683.50;;;18.83;99.47
35910;BME280;22004;49.120;-0.200;2022-09-09T07:42:05;100683.38;;;18.63;100.00
35910;BME280;22004;49.120;-0.200;2022-09-09T07:44:31;100693.50;;;18.39;100.00
35910;BME280;22004;49.120;-0.200;2022-09-09T07:47:00;100689.06;;;18.49;100.00
35910;BME280;22004;49.120;-0.200;2022-09-09T07:49:26;100684.94;;;18.87;100.00
35910;BME280;22004;49.120;-0.200;2022-09-09T07:51:51;100682.28;;;18.66;100.00
35910;BME280;22004;49.120;-0.200;2022-09-09T07:54:19;100687.19;;;18.61;100.00
35910;BME280;22004;49.120;-0.200;2022-09-09T07:56:49;100687.91;;;18.42;100.00
35910;BME280;22004;49.120;-0.200;2022-09-09T07:59:15;100685.84;;;18.01;100.00
35910;BME280;22004;49.120;-0.200;2022-09-09T08:01:45;100688.75;;;18.10;100.00
35910;BME280;22004;49.120;-0.200;2022-09-09T08:04:17;100687.94;;;17.87;100.00
35910;BME280;22004;49.120;-0.200;2022-09-09T08:06:48;100695.13;;;17.75;100.00
35910;BME280;22004;49.120;-0.200;2022-09-09T08:09:15;100692.09;;;17.68;100.00
35910;BME280;22004;49.120;-0.200;2022-09-09T08:11:41;100699.31;;;17.56;100.00
35910;BME280;22004;49.120;-0.200;2022-09-09T08:14:08;100702.09;;;17.77;100.00
35910;BME280;22004;49.120;-0.200;2022-09-09T08:16:40;100702.72;;;17.81;100.00
35910;BME280;22004;49.120;-0.200;2022-09-09T08:19:06;100699.16;;;17.80;100.00
35910;BME280;22004;49.120;-0.200;2022-09-09T08:21:33;100698.88;;;18.06;100.00
35910;BME280;22004;49.120;-0.200;2022-09-09T08:24:00;100700.66;;;18.28;100.00
35910;BME280;22004;49.120;-0.200;2022-09-09T08:26:34;100704.09;;;18.19;100.00
35910;BME280;22004;49.120;-0.200;2022-09-09T08:29:01;100703.88;;;18.11;100.00
35910;BME280;22004;49.120;-0.200;2022-09-09T08:31:45;100711.47;;;17.83;100.00
35910;BME280;22004;49.120;-0.200;2022-09-09T08:34:11;100711.97;;;17.65;100.00
35910;BME280;22004;49.120;-0.200;2022-09-09T08:36:47;100717.84;;;17.71;100.00
35910;BME280;22004;49.120;-0.200;2022-09-09T08:39:15;100718.06;;;17.90;100.00
35910;BME280;22004;49.120;-0.200;2022-09-09T08:41:59;100726.84;;;17.92;100.00
35910;BME280;22004;49.120;-0.200;2022-09-09T08:50:43;100742.25;;;17.33;100.00
35910;BME280;22004;49.120;-0.200;2022-09-09T08:53:29;100751.13;;;17.57;100.00
35910;BME280;22004;49.120;-0.200;2022-09-09T08:56:01;100743.66;;;17.83;100.00
35910;BME280;22004;49.120;-0.200;2022-09-09T08:58:33;100759.81;;;17.60;100.00
35910;BME280;22004;49.120;-0.200;2022-09-09T09:11:24;100772.47;;;17.92;100.00
35910;BME280;22004;49.120;-0.200;2022-09-09T09:19:14;100772.47;;;18.04;100.00
35910;BME280;22004;49.120;-0.200;2022-09-09T09:21:43;100793.91;;;18.15;100.00
35910;BME280;22004;49.120;-0.200;2022-09-09T09:24:23;100792.84;;;17.83;100.00
35910;BME280;22004;49.120;-0.200;2022-09-09T09:26:50;100797.22;;;18.07;100.00
35910;BME280;22004;49.120;-0.200;2022-09-09T09:29:19;100789.03;;;17.75;100.00
35910;BME280;22004;49.120;-0.200;2022-09-09T09:31:52;100799.28;;;18.15;100.00
35910;BME280;22004;49.120;-0.200;2022-09-09T09:34:22;100804.44;;;18.07;100.00
35910;BME280;22004;49.120;-0.200;2022-09-09T09:36:59;100801.53;;;17.98;100.00
35910;BME280;22004;49.120;-0.200;2022-09-09T09:39:31;100810.50;;;18.09;100.00
35910;BME280;22004;49.120;-0.200;2022-09-09T09:42:28;100815.31;;;19.14;100.00
35910;BME280;22004;49.120;-0.200;2022-09-09T09:44:53;100810.38;;;18.98;100.00
35910;BME280;22004;49.120;-0.200;2022-09-09T09:47:22;100823.91;;;18.31;100.00
35910;BME280;22004;49.120;-0.200;2022-09-09T09:49:57;100829.06;;;18.00;100.00
35910;BME280;22004;49.120;-0.200;2022-09-09T09:52:28;100834.75;;;17.28;100.00
35910;BME280;22004;49.120;-0.200;2022-09-09T09:54:54;100839.53;;;17.47;100.00
35910;BME280;22004;49.120;-0.200;2022-09-09T09:57:29;100845.47;;;17.28;100.00
35910;BME280;22004;49.120;-0.200;2022-09-09T10:02:40;100848.34;;;17.25;100.00
35910;BME280;22004;49.120;-0.200;2022-09-09T10:05:18;100852.00;;;17.24;100.00
35910;BME280;22004;49.120;-0.200;2022-09-09T10:07:45;100855.38;;;17.50;100.00
35910;BME280;22004;49.120;-0.200;2022-09-09T10:10:16;100859.78;;;17.85;100.00
35910;BME280;22004;49.120;-0.200;2022-09-09T10:13:08;100860.41;;;18.34;100.00
35910;BME280;22004;49.120;-0.200;2022-09-09T10:15:47;100864.06;;;18.44;100.00
35910;BME280;22004;49.120;-0.200;2022-09-09T10:18:38;100859.63;;;18.87;100.00
35910;BME280;22004;49.120;-0.200;2022-09-09T10:29:40;100857.50;;;19.13;100.00
35910;BME280;22004;49.120;-0.200;2022-09-09T10:32:24;100858.69;;;18.88;100.00
35910;BME280;22004;49.120;-0.200;2022-09-09T10:35:01;100865.28;;;18.40;100.00
35910;BME280;22004;49.120;-0.200;2022-09-09T10:40:59;100862.44;;;18.53;100.00
35910;BME280;22004;49.120;-0.200;2022-09-09T10:42:51;100862.97;;;18.13;100.00
35910;BME280;22004;49.120;-0.200;2022-09-09T10:45:21;100863.97;;;18.23;100.00
35910;BME280;22004;49.120;-0.200;2022-09-09T10:55:41;100850.38;;;18.47;100.00
35910;BME280;22004;49.120;-0.200;2022-09-09T10:58:14;100847.16;;;18.65;100.00
35910;BME280;22004;49.120;-0.200;2022-09-09T11:00:47;100846.66;;;18.60;100.00
35910;BME280;22004;49.120;-0.200;2022-09-09T11:03:24;100855.38;;;18.41;100.00
35910;BME280;22004;49.120;-0.200;2022-09-09T11:05:59;100865.38;;;18.39;100.00
35910;BME280;22004;49.120;-0.200;2022-09-09T11:08:28;100858.91;;;18.52;100.00
35910;BME280;22004;49.120;-0.200;2022-09-09T11:11:11;100858.72;;;19.30;98.71
35910;BME280;22004;49.120;-0.200;2022-09-09T11:13:49;100869.13;;;19.35;97.65
35910;BME280;22004;49.120;-0.200;2022-09-09T11:16:46;100868.69;;;19.82;93.97
35910;BME280;22004;49.120;-0.200;2022-09-09T11:21:52;100861.22;;;19.22;95.95
35910;BME280;22004;49.120;-0.200;2022-09-09T11:26:51;100865.78;;;19.74;95.09
35910;BME280;22004;49.120;-0.200;2022-09-09T11:29:43;100869.75;;;19.91;94.20
35910;BME280;22004;49.120;-0.200;2022-09-09T11:40:28;100858.97;;;19.91;91.06
35910;BME280;22004;49.120;-0.200;2022-09-09T11:45:37;100862.50;;;19.91;92.20
35910;BME280;22004;49.120;-0.200;2022-09-09T11:48:03;100869.56;;;20.13;92.53
35910;BME280;22004;49.120;-0.200;2022-09-09T11:50:35;100864.81;;;20.36;90.57
35910;BME280;22004;49.120;-0.200;2022-09-09T11:53:06;100857.94;;;20.23;89.16
35910;BME280;22004;49.120;-0.200;2022-09-09T11:55:41;100863.69;;;20.49;87.62
35910;BME280;22004;49.120;-0.200;2022-09-09T11:58:16;100870.03;;;20.38;87.37
35910;BME280;22004;49.120;-0.200;2022-09-09T12:00:46;100861.91;;;19.88;87.92
35910;BME280;22004;49.120;-0.200;2022-09-09T12:05:59;100878.88;;;19.36;92.28
35910;BME280;22004;49.120;-0.200;2022-09-09T12:08:28;100880.97;;;19.11;94.35
35910;BME280;22004;49.120;-0.200;2022-09-09T12:10:58;100881.16;;;18.98;94.79
35910;BME280;22004;49.120;-0.200;2022-09-09T12:13:26;100882.50;;;18.93;94.19
35910;BME280;22004;49.120;-0.200;2022-09-09T12:15:56;100887.97;;;19.24;91.12
35910;BME280;22004;49.120;-0.200;2022-09-09T12:18:33;100893.56;;;19.32;92.27
35910;BME280;22004;49.120;-0.200;2022-09-09T12:24:09;100895.34;;;19.43;92.84
35910;BME280;22004;49.120;-0.200;2022-09-09T12:27:14;100891.16;;;19.29;92.59
35910;BME280;22004;49.120;-0.200;2022-09-09T12:29:54;100892.44;;;19.34;93.00
35910;BME280;22004;49.120;-0.200;2022-09-09T12:32:24;100888.78;;;19.35;93.60
35910;BME280;22004;49.120;-0.200;2022-09-09T12:34:56;100893.50;;;19.22;93.11
35910;BME280;22004;49.120;-0.200;2022-09-09T12:37:35;100902.81;;;19.18;93.94
35910;BME280;22004;49.120;-0.200;2022-09-09T12:42:46;100890.53;;;19.25;94.44
35910;BME280;22004;49.120;-0.200;2022-09-09T12:45:25;100891.53;;;19.24;92.93
35910;BME280;22004;49.120;-0.200;2022-09-09T12:47:54;100908.47;;;19.04;93.76
35910;BME280;22004;49.120;-0.200;2022-09-09T12:50:23;100909.22;;;19.06;94.13
35910;BME280;22004;49.120;-0.200;2022-09-09T12:52:53;100903.63;;;18.97;92.58
35910;BME280;22004;49.120;-0.200;2022-09-09T12:55:21;100904.25;;;19.22;90.98
35910;BME280;22004;49.120;-0.200;2022-09-09T12:57:48;100905.97;;;19.44;90.43
35910;BME280;22004;49.120;-0.200;2022-09-09T13:00:21;100911.75;;;19.40;89.25
35910;BME280;22004;49.120;-0.200;2022-09-09T13:02:58;100904.25;;;20.07;88.46
35910;BME280;22004;49.120;-0.200;2022-09-09T13:05:25;100902.66;;;20.35;87.48
35910;BME280;22004;49.120;-0.200;2022-09-09T13:07:51;100903.81;;;20.42;81.73
35910;BME280;22004;49.120;-0.200;2022-09-09T13:10:26;100908.31;;;20.42;84.76
35910;BME280;22004;49.120;-0.200;2022-09-09T13:12:54;100912.00;;;19.79;85.96
35910;BME280;22004;49.120;-0.200;2022-09-09T13:15:24;100902.97;;;19.59;89.75
35910;BME280;22004;49.120;-0.200;2022-09-09T13:17:56;100916.00;;;19.42;91.17
35910;BME280;22004;49.120;-0.200;2022-09-09T13:20:23;100914.97;;;19.76;88.22
35910;BME280;22004;49.120;-0.200;2022-09-09T13:22:50;100908.00;;;19.73;86.27
35910;BME280;22004;49.120;-0.200;2022-09-09T13:25:23;100914.69;;;19.58;89.50
35910;BME280;22004;49.120;-0.200;2022-09-09T13:28:02;100916.81;;;19.54;90.63
35910;BME280;22004;49.120;-0.200;2022-09-09T13:30:33;100921.19;;;19.76;89.63
35910;BME280;22004;49.120;-0.200;2022-09-09T13:35:35;100916.00;;;20.06;88.26
35910;BME280;22004;49.120;-0.200;2022-09-09T13:38:10;100924.28;;;19.72;91.98
35910;BME280;22004;49.120;-0.200;2022-09-09T13:40:35;100911.84;;;19.92;91.86
35910;BME280;22004;49.120;-0.200;2022-09-09T13:43:02;100916.63;;;20.19;88.76
35910;BME280;22004;49.120;-0.200;2022-09-09T13:45:28;100911.69;;;20.24;91.52
35910;BME280;22004;49.120;-0.200;2022-09-09T13:47:54;100902.16;;;19.68;90.17
35910;BME280;22004;49.120;-0.200;2022-09-09T13:50:29;100907.97;;;19.63;90.25
35910;BME280;22004;49.120;-0.200;2022-09-09T13:52:56;100902.81;;;19.60;91.59
35910;BME280;22004;49.120;-0.200;2022-09-09T13:55:26;100903.88;;;19.48;91.17
35910;BME280;22004;49.120;-0.200;2022-09-09T13:57:56;100902.16;;;19.47;92.05
35910;BME280;22004;49.120;-0.200;2022-09-09T14:00:22;100910.81;;;19.29;92.61
35910;BME280;22004;49.120;-0.200;2022-09-09T14:02:49;100911.41;;;19.33;93.33
35910;BME280;22004;49.120;-0.200;2022-09-09T14:05:14;100912.16;;;19.35;93.21
35910;BME280;22004;49.120;-0.200;2022-09-09T14:07:41;100914.44;;;19.40;92.80
35910;BME280;22004;49.120;-0.200;2022-09-09T14:10:08;100916.47;;;19.47;92.60
35910;BME280;22004;49.120;-0.200;2022-09-09T14:12:33;100916.22;;;19.72;91.48
35910;BME280;22004;49.120;-0.200;2022-09-09T14:14:59;100927.91;;;19.82;90.86
35910;BME280;22004;49.120;-0.200;2022-09-09T14:17:26;100916.78;;;19.75;90.76
35910;BME280;22004;49.120;-0.200;2022-09-09T14:19:54;100919.69;;;19.83;91.26
35910;BME280;22004;49.120;-0.200;2022-09-09T14:22:21;100913.06;;;19.66;91.16
35910;BME280;22004;49.120;-0.200;2022-09-09T14:24:47;100927.00;;;19.72;89.58
35910;BME280;22004;49.120;-0.200;2022-09-09T14:27:12;100921.00;;;19.47;90.23
35910;BME280;22004;49.120;-0.200;2022-09-09T14:29:37;100919.88;;;19.28;89.45
35910;BME280;22004;49.120;-0.200;2022-09-09T14:32:03;100924.38;;;19.28;92.06
35910;BME280;22004;49.120;-0.200;2022-09-09T14:34:28;100923.72;;;19.14;92.56
35910;BME280;22004;49.120;-0.200;2022-09-09T14:36:53;100925.09;;;19.09;92.48